createdAt,value
2023-02-24T00:01:37.774Z,95746.19
2023-02-24T00:04:08.788Z,95742.69
2023-02-24T00:06:38.766Z,95749.78
2023-02-24T00:09:12.432Z,95741.81
2023-02-24T00:11:39.960Z,95742.81
2023-02-24T00:14:07.766Z,95736.63
2023-02-24T00:16:34.460Z,95743.75
2023-02-24T00:19:01.181Z,95734.94
2023-02-24T00:21:28.540Z,95734.94
2023-02-24T00:23:55.018Z,95731.44
2023-02-24T00:26:21.535Z,95737.59
2023-02-24T00:28:48.004Z,95727.94
2023-02-24T00:31:15.860Z,95724.41
2023-02-24T00:33:42.989Z,95726.22
2023-02-24T00:36:09.582Z,95725.50
2023-02-24T00:38:36.330Z,95717.53
2023-02-24T00:41:14.312Z,95722.00
2023-02-24T00:43:46.842Z,95717.66
2023-02-24T00:46:17.365Z,95711.59
2023-02-24T00:48:47.900Z,95715.09
2023-02-24T00:51:23.314Z,95702.78
2023-02-24T00:53:50.796Z,95707.25
2023-02-24T00:56:17.443Z,95702.91
2023-02-24T00:58:45.132Z,95704.72
2023-02-24T01:01:13.694Z,95693.25
2023-02-24T01:03:41.182Z,95690.59
2023-02-24T01:06:07.982Z,95684.41
2023-02-24T01:08:36.592Z,95680.91
2023-02-24T01:11:22.808Z,95679.22
2023-02-24T01:13:49.449Z,95681.00
2023-02-24T01:16:18.699Z,95669.53
2023-02-24T01:18:47.933Z,95673.03
2023-02-24T01:21:19.803Z,95677.53
2023-02-24T01:23:50.128Z,95667.88
2023-02-24T01:26:17.219Z,95661.69
2023-02-24T01:28:46.972Z,95658.19
2023-02-24T01:31:17.987Z,95661.78
2023-02-24T01:33:45.852Z,95657.47
2023-02-24T01:36:16.416Z,95656.63
2023-02-24T01:38:43.043Z,95657.56
2023-02-24T01:41:10.314Z,95657.56
2023-02-24T01:43:56.004Z,95648.88
2023-02-24T01:46:23.509Z,95649.72
2023-02-24T01:48:50.539Z,95648.88
2023-02-24T01:51:17.734Z,95642.72
2023-02-24T01:53:44.938Z,95648.88
2023-02-24T01:56:13.705Z,95627.72
2023-02-24T01:58:40.196Z,95636.69
2023-02-24T02:01:09.532Z,95638.34
2023-02-24T02:03:41.525Z,95636.69
2023-02-24T02:06:11.108Z,95633.19
2023-02-24T02:08:38.918Z,95625.31
2023-02-24T02:11:08.026Z,95624.34
2023-02-24T02:13:35.756Z,95622.66
2023-02-24T02:16:14.132Z,95627.00
2023-02-24T02:18:42.819Z,95618.19
2023-02-24T02:21:09.232Z,95620.00
2023-02-24T02:23:40.954Z,95623.50
2023-02-24T02:26:10.818Z,95621.78
2023-02-24T02:28:42.530Z,95620.97
2023-02-24T02:31:12.717Z,95618.41
2023-02-24T02:33:44.121Z,95620.13
2023-02-24T02:36:31.230Z,95610.44
2023-02-24T02:39:03.576Z,95610.44
2023-02-24T02:41:36.300Z,95607.78
2023-02-24T02:44:11.895Z,95611.44
2023-02-24T02:46:40.928Z,95614.19
2023-02-24T02:49:21.825Z,95614.19
2023-02-24T02:51:52.134Z,95613.25
2023-02-24T02:54:24.837Z,95608.03
2023-02-24T02:56:53.009Z,95602.72
2023-02-24T02:59:22.522Z,95604.56
2023-02-24T03:01:49.410Z,95604.56
2023-02-24T03:04:17.610Z,95609.00
2023-02-24T03:07:01.480Z,95608.03
2023-02-24T03:09:30.277Z,95605.50
2023-02-24T03:12:02.581Z,95605.38
2023-02-24T03:14:33.190Z,95601.03
2023-02-24T03:17:00.014Z,95592.22
2023-02-24T03:19:28.283Z,95599.34
2023-02-24T03:22:02.431Z,95593.19
2023-02-24T03:24:29.311Z,95586.91
2023-02-24T03:27:08.928Z,95592.22
2023-02-24T03:29:43.253Z,95585.94
2023-02-24T03:32:13.567Z,95578.91
2023-02-24T03:34:49.421Z,95576.38
2023-02-24T03:37:16.248Z,95577.25
2023-02-24T03:39:42.785Z,95574.59
2023-02-24T03:42:18.956Z,95577.25
2023-02-24T03:44:46.175Z,95574.59
2023-02-24T03:47:13.602Z,95568.41
2023-02-24T03:49:43.657Z,95574.44
2023-02-24T03:52:21.580Z,95570.09
2023-02-24T03:54:55.723Z,95569.28
2023-02-24T03:57:54.689Z,95567.44
2023-02-24T04:00:35.211Z,95562.13
2023-02-24T04:03:25.522Z,95560.41
2023-02-24T04:06:01.428Z,95559.47
2023-02-24T04:08:30.085Z,95559.59
2023-02-24T04:11:00.199Z,95565.75
2023-02-24T04:13:43.349Z,95559.59
2023-02-24T04:16:18.325Z,95560.53
2023-02-24T04:18:47.873Z,95554.38
2023-02-24T04:21:15.308Z,95553.44
2023-02-24T04:23:43.165Z,95545.47
2023-02-24T04:26:10.320Z,95552.56
2023-02-24T04:28:37.002Z,95541.94
2023-02-24T04:31:06.119Z,95546.41
2023-02-24T04:33:34.430Z,95547.41
2023-02-24T04:36:01.052Z,95547.25
2023-02-24T04:38:30.217Z,95542.91
2023-02-24T04:40:58.144Z,95545.69
2023-02-24T04:43:24.664Z,95546.53
2023-02-24T04:45:51.578Z,95551.00
2023-02-24T04:48:19.852Z,95537.72
2023-02-24T04:50:46.444Z,95536.88
2023-02-24T04:53:14.662Z,95529.75
2023-02-24T04:55:48.646Z,95531.44
2023-02-24T04:58:19.304Z,95521.66
2023-02-24T05:00:52.552Z,95519.94
2023-02-24T05:03:19.835Z,95519.09
2023-02-24T05:05:51.894Z,95509.56
2023-02-24T05:08:19.394Z,95511.53
2023-02-24T05:10:49.117Z,95507.16
2023-02-24T05:13:26.616Z,95502.81
2023-02-24T05:15:56.787Z,95500.16
2023-02-24T05:18:26.310Z,95489.53
2023-02-24T05:21:12.750Z,95498.34
2023-02-24T05:23:40.204Z,95486.00
2023-02-24T05:26:10.517Z,95486.88
2023-02-24T05:28:37.965Z,95480.69
2023-02-24T05:31:06.249Z,95481.69
2023-02-24T05:33:32.855Z,95483.34
2023-02-24T05:36:05.286Z,95472.72
2023-02-24T05:38:32.390Z,95470.06
2023-02-24T05:41:04.603Z,95471.06
2023-02-24T05:43:31.242Z,95472.72
2023-02-24T05:46:04.437Z,95461.25
2023-02-24T05:48:35.221Z,95463.06
2023-02-24T05:51:05.156Z,95455.94
2023-02-24T05:53:31.781Z,95464.75
2023-02-24T05:56:00.419Z,95457.63
2023-02-24T05:58:29.034Z,95454.97
2023-02-24T06:00:56.021Z,95467.28
2023-02-24T06:03:30.911Z,95469.09
2023-02-24T06:06:05.521Z,95476.13
2023-02-24T06:08:42.053Z,95464.63
2023-02-24T06:11:10.275Z,95477.91
2023-02-24T06:13:37.669Z,95477.91
2023-02-24T06:16:07.609Z,95482.28
2023-02-24T06:18:34.095Z,95487.47
2023-02-24T06:21:01.754Z,95466.22
2023-02-24T06:23:28.511Z,95485.78
2023-02-24T06:25:57.799Z,95491.81
2023-02-24T06:28:25.053Z,95497.13
2023-02-24T06:30:51.848Z,95491.69
2023-02-24T06:33:18.490Z,95489.16
2023-02-24T06:35:45.138Z,95490.69
2023-02-24T06:38:11.588Z,95498.56
2023-02-24T06:40:38.123Z,95493.25
2023-02-24T06:43:04.556Z,95500.16
2023-02-24T06:45:32.109Z,95502.53
2023-02-24T06:47:58.567Z,95503.13
2023-02-24T06:50:25.453Z,95489.59
2023-02-24T06:52:54.936Z,95494.66
2023-02-24T06:55:27.422Z,95487.38
2023-02-24T06:57:57.683Z,95496.91
2023-02-24T07:00:36.818Z,95485.19
2023-02-24T07:03:14.618Z,95489.41
2023-02-24T07:05:50.151Z,95487.06
2023-02-24T07:08:17.610Z,95484.06
2023-02-24T07:10:44.130Z,95492.63
2023-02-24T07:13:10.572Z,95485.34
2023-02-24T07:15:37.787Z,95491.13
2023-02-24T07:18:04.628Z,95488.13
2023-02-24T07:20:31.080Z,95491.38
2023-02-24T07:22:57.616Z,95493.75
2023-02-24T07:25:33.384Z,95492.53
2023-02-24T07:28:01.911Z,95485.25
2023-02-24T07:30:30.162Z,95486.94
2023-02-24T07:32:57.034Z,95488.38
2023-02-24T07:35:24.325Z,95493.31
2023-02-24T07:37:50.988Z,95497.53
2023-02-24T07:40:21.854Z,95496.44
2023-02-24T07:42:48.700Z,95497.00
2023-02-24T07:45:15.745Z,95493.81
2023-02-24T07:47:42.607Z,95498.03
2023-02-24T07:50:14.031Z,95497.91
2023-02-24T07:52:40.785Z,95491.47
2023-02-24T07:55:09.016Z,95498.63
2023-02-24T07:57:37.357Z,95495.72
2023-02-24T08:00:17.106Z,95499.66
2023-02-24T08:02:45.395Z,95492.22
2023-02-24T08:05:11.901Z,95490.97
2023-02-24T08:07:40.181Z,95481.31
2023-02-24T08:10:13.688Z,95468.41
2023-02-24T08:12:42.728Z,95467.72
2023-02-24T08:15:17.122Z,95464.31
2023-02-24T08:17:44.200Z,95463.34
2023-02-24T08:20:13.638Z,95464.59
2023-02-24T08:22:44.408Z,95457.56
2023-02-24T08:25:18.113Z,95454.19
2023-02-24T08:28:06.914Z,95459.41
2023-02-24T08:30:38.764Z,95453.22
2023-02-24T08:33:09.739Z,95449.03
2023-02-24T08:35:36.910Z,95440.47
2023-02-24T08:38:04.880Z,95444.06
2023-02-24T08:40:32.904Z,95453.59
2023-02-24T08:43:00.670Z,95453.22
2023-02-24T08:45:33.363Z,95457.06
2023-02-24T08:48:00.578Z,95460.03
2023-02-24T08:50:33.880Z,95463.13
2023-02-24T08:53:03.419Z,95466.09
2023-02-24T08:55:32.952Z,95474.41
2023-02-24T08:58:01.569Z,95477.53
2023-02-24T09:00:49.073Z,95478.81
2023-02-24T09:03:27.926Z,95472.94
2023-02-24T09:06:04.495Z,95475.91
2023-02-24T09:08:38.275Z,95476.63
2023-02-24T09:11:08.056Z,95476.34
2023-02-24T09:13:35.552Z,95473.44
2023-02-24T09:16:02.652Z,95460.94
2023-02-24T09:18:38.280Z,95457.16
2023-02-24T09:21:30.797Z,95456.03
2023-02-24T09:23:57.411Z,95462.78
2023-02-24T09:26:23.859Z,95451.84
2023-02-24T09:28:54.836Z,95457.03
2023-02-24T09:31:24.144Z,95454.25
2023-02-24T09:33:51.152Z,95458.44
2023-02-24T09:36:27.880Z,95464.47
2023-02-24T09:39:01.829Z,95456.34
2023-02-24T09:42:01.906Z,95453.41
2023-02-24T09:44:35.772Z,95441.75
2023-02-24T09:47:51.164Z,95431.94
2023-02-24T09:50:40.638Z,95425.31
2023-02-24T09:53:14.191Z,95425.06
2023-02-24T09:56:00.253Z,95416.09
2023-02-24T09:58:49.750Z,95414.88
2023-02-24T10:01:33.541Z,95418.94
2023-02-24T10:04:18.601Z,95423.97
2023-02-24T10:06:49.640Z,95421.16
2023-02-24T10:09:24.475Z,95427.19
2023-02-24T10:11:54.464Z,95417.22
2023-02-24T10:14:24.182Z,95415.25
2023-02-24T10:17:12.210Z,95413.47
2023-02-24T10:19:41.231Z,95405.16
2023-02-24T10:22:08.205Z,95406.84
2023-02-24T10:24:48.802Z,95408.38
2023-02-24T10:27:27.299Z,95386.91
2023-02-24T10:30:04.933Z,95389.28
2023-02-24T10:32:38.900Z,95389.16
2023-02-24T10:35:06.186Z,95378.47
2023-02-24T10:37:34.203Z,95374.41
2023-02-24T10:40:09.494Z,95369.50
2023-02-24T10:42:37.626Z,95347.75
2023-02-24T10:45:18.078Z,95344.81
2023-02-24T10:47:56.247Z,95339.88
2023-02-24T10:50:25.578Z,95334.97
2023-02-24T10:53:02.420Z,95326.53
2023-02-24T10:55:53.282Z,95330.78
2023-02-24T10:58:28.172Z,95331.16
2023-02-24T11:01:07.066Z,95319.94
2023-02-24T11:03:41.786Z,95321.22
2023-02-24T11:06:52.418Z,95314.34
2023-02-24T11:09:29.346Z,95304.94
2023-02-24T11:12:29.813Z,95300.59
2023-02-24T11:15:16.571Z,95293.03
2023-02-24T11:17:58.744Z,95294.00
2023-02-24T11:20:42.316Z,95291.63
2023-02-24T11:23:39.442Z,95288.25
2023-02-24T11:26:18.225Z,95267.22
2023-02-24T11:29:00.526Z,95276.19
2023-02-24T11:31:46.223Z,95263.00
2023-02-24T11:34:16.016Z,95272.84
2023-02-24T11:36:47.923Z,95253.31
2023-02-24T11:39:21.458Z,95264.84
2023-02-24T11:41:53.089Z,95256.16
2023-02-24T11:44:24.106Z,95252.78
2023-02-24T11:46:52.290Z,95244.78
2023-02-24T11:49:27.586Z,95243.09
2023-02-24T11:51:54.713Z,95236.25
2023-02-24T11:54:23.201Z,95236.38
2023-02-24T11:56:51.972Z,95232.00
2023-02-24T11:59:23.490Z,95223.19
2023-02-24T12:01:49.905Z,95214.34
2023-02-24T12:04:20.965Z,95211.97
2023-02-24T12:06:53.929Z,95207.63
2023-02-24T12:09:22.868Z,95200.75
2023-02-24T12:11:54.134Z,95199.91
2023-02-24T12:14:34.595Z,95201.75
2023-02-24T12:17:13.987Z,95197.38
2023-02-24T12:19:45.092Z,95198.38
2023-02-24T12:22:13.269Z,95180.84
2023-02-24T12:24:42.055Z,95176.47
2023-02-24T12:27:14.756Z,95176.59
2023-02-24T12:29:48.519Z,95172.28
2023-02-24T12:32:35.646Z,95169.06
2023-02-24T12:35:08.480Z,95165.69
2023-02-24T12:37:48.403Z,95159.66
2023-02-24T12:40:25.857Z,95156.31
2023-02-24T12:43:04.225Z,95164.44
2023-02-24T12:45:33.914Z,95158.28
2023-02-24T12:48:00.369Z,95162.91
2023-02-24T12:50:44.900Z,95162.91
2023-02-24T12:53:17.156Z,95149.72
2023-02-24T12:55:45.900Z,95146.22
2023-02-24T12:58:14.375Z,95146.34
2023-02-24T13:00:59.821Z,95140.31
2023-02-24T13:03:49.745Z,95143.97
2023-02-24T13:06:19.351Z,95137.94
2023-02-24T13:08:52.730Z,95133.59
2023-02-24T13:11:27.953Z,95123.91
2023-02-24T13:13:56.590Z,95119.72
2023-02-24T13:16:31.079Z,95116.38
2023-02-24T13:19:04.563Z,95112.84
2023-02-24T13:21:31.059Z,95105.84
2023-02-24T13:23:58.565Z,95085.53
2023-02-24T13:26:25.965Z,95075.03
2023-02-24T13:29:02.951Z,95081.47
2023-02-24T13:31:39.891Z,95064.97
2023-02-24T13:34:14.650Z,95059.09
2023-02-24T13:36:50.496Z,95051.22
2023-02-24T13:39:21.971Z,95050.53
2023-02-24T13:41:48.661Z,95051.50
2023-02-24T13:44:19.785Z,95049.97
2023-02-24T13:46:53.976Z,95043.94
2023-02-24T13:49:30.010Z,95046.47
2023-02-24T13:52:00.798Z,95042.25
2023-02-24T13:54:30.284Z,95034.44
2023-02-24T13:56:56.710Z,95032.75
2023-02-24T13:59:26.070Z,95036.22
2023-02-24T14:01:59.798Z,95039.91
2023-02-24T14:04:29.288Z,95040.84
2023-02-24T14:06:56.722Z,95027.56
2023-02-24T14:09:27.207Z,95034.72
2023-02-24T14:12:04.811Z,95033.88
2023-02-24T14:14:31.423Z,95037.38
2023-02-24T14:16:59.771Z,95039.19
2023-02-24T14:19:28.649Z,95035.84
2023-02-24T14:21:56.468Z,95020.69
2023-02-24T14:24:23.294Z,95015.50
2023-02-24T14:26:53.894Z,95017.47
2023-02-24T14:29:44.244Z,95010.50
2023-02-24T14:32:17.645Z,95002.66
2023-02-24T14:34:46.386Z,95000.94
2023-02-24T14:37:17.133Z,94998.47
2023-02-24T14:39:52.926Z,95001.13
2023-02-24T14:42:20.241Z,94987.81
2023-02-24T14:44:49.620Z,94983.47
2023-02-24T14:47:16.776Z,94978.25
2023-02-24T14:49:51.796Z,94980.91
2023-02-24T14:52:24.484Z,94981.03
2023-02-24T14:54:55.123Z,94976.72
2023-02-24T14:57:26.522Z,94980.22
2023-02-24T14:59:54.472Z,94969.69
2023-02-24T15:02:21.851Z,94970.69
2023-02-24T15:04:48.436Z,94961.03
2023-02-24T15:07:17.390Z,94961.03
2023-02-24T15:09:44.464Z,94958.53
2023-02-24T15:12:12.159Z,94967.47
2023-02-24T15:14:38.820Z,94963.84
2023-02-24T15:17:10.581Z,94960.06
2023-02-24T15:19:38.534Z,94943.41
2023-02-24T15:22:22.338Z,94933.03
2023-02-24T15:24:49.052Z,94930.50
2023-02-24T15:27:15.442Z,94929.69
2023-02-24T15:29:42.690Z,94934.31
2023-02-24T15:32:16.473Z,94923.78
2023-02-24T15:34:44.588Z,94920.31
2023-02-24T15:37:14.703Z,94921.31
2023-02-24T15:39:44.466Z,94921.31
2023-02-24T15:42:16.886Z,94920.44
2023-02-24T15:44:52.972Z,94908.13
2023-02-24T15:47:40.750Z,94905.63
2023-02-24T15:50:08.075Z,94894.97
2023-02-24T15:52:35.449Z,94894.16
2023-02-24T15:55:02.544Z,94886.31
2023-02-24T15:57:29.361Z,94880.16
2023-02-24T15:59:55.858Z,94878.31
2023-02-24T16:02:22.926Z,94873.16
2023-02-24T16:04:50.107Z,94870.47
2023-02-24T16:07:18.664Z,94870.63
2023-02-24T16:09:45.485Z,94867.97
2023-02-24T16:12:13.496Z,94872.44
2023-02-24T16:14:40.001Z,94862.66
2023-02-24T16:17:26.024Z,94854.66
2023-02-24T16:19:52.543Z,94865.31
2023-02-24T16:22:19.097Z,94855.66
2023-02-24T16:24:45.753Z,94847.81
2023-02-24T16:27:19.202Z,94832.88
2023-02-24T16:29:45.772Z,94832.88
2023-02-24T16:32:12.782Z,94839.16
2023-02-24T16:34:39.537Z,94830.47
2023-02-24T16:37:18.479Z,94834.97
2023-02-24T16:39:45.219Z,94842.09
2023-02-24T16:42:11.731Z,94846.56
2023-02-24T16:44:38.397Z,94850.22
2023-02-24T16:47:05.728Z,94857.34
2023-02-24T16:49:32.543Z,94844.03
2023-02-24T16:51:59.006Z,94838.91
2023-02-24T16:54:29.086Z,94845.03
2023-02-24T16:56:56.399Z,94843.22
2023-02-24T16:59:23.252Z,94846.69
2023-02-24T17:01:49.681Z,94845.88
2023-02-24T17:04:16.226Z,94842.38
2023-02-24T17:06:42.935Z,94832.56
2023-02-24T17:09:09.504Z,94841.38
2023-02-24T17:11:35.930Z,94825.59
2023-02-24T17:14:02.560Z,94830.91
2023-02-24T17:16:29.029Z,94831.75
2023-02-24T17:18:56.226Z,94824.75
2023-02-24T17:21:22.995Z,94835.38
2023-02-24T17:23:51.179Z,94833.56
2023-02-24T17:26:18.560Z,94821.25
2023-02-24T17:28:45.256Z,94822.09
2023-02-24T17:31:12.487Z,94817.91
2023-02-24T17:33:39.221Z,94828.41
2023-02-24T17:36:05.748Z,94823.09
2023-02-24T17:38:32.290Z,94823.09
2023-02-24T17:41:00.661Z,94819.59
2023-02-24T17:43:28.773Z,94815.09
2023-02-24T17:45:55.262Z,94820.41
2023-02-24T17:48:21.934Z,94822.25
2023-02-24T17:50:48.499Z,94807.00
2023-02-24T17:53:15.010Z,94807.97
2023-02-24T17:55:49.916Z,94803.47
2023-02-24T17:58:27.830Z,94802.63
2023-02-24T18:00:54.382Z,94806.13
2023-02-24T18:03:20.953Z,94790.34
2023-02-24T18:05:47.543Z,94799.00
2023-02-24T18:08:14.576Z,94783.06
2023-02-24T18:10:41.123Z,94790.88
2023-02-24T18:13:07.611Z,94784.72
2023-02-24T18:15:34.065Z,94781.38
2023-02-24T18:18:00.576Z,94780.53
2023-02-24T18:20:27.040Z,94762.22
2023-02-24T18:22:53.528Z,94752.56
2023-02-24T18:25:19.978Z,94758.84
2023-02-24T18:27:46.494Z,94754.38
2023-02-24T18:30:17.628Z,94754.38
2023-02-24T18:32:47.429Z,94751.88
2023-02-24T18:35:15.809Z,94746.56
2023-02-24T18:37:42.372Z,94741.25
2023-02-24T18:40:09.225Z,94740.38
2023-02-24T18:42:35.699Z,94739.56
2023-02-24T18:45:02.178Z,94740.38
2023-02-24T18:47:29.109Z,94736.91
2023-02-24T18:49:55.604Z,94735.38
2023-02-24T18:52:22.348Z,94742.22
2023-02-24T18:54:49.614Z,94753.84
2023-02-24T18:57:16.241Z,94775.13
2023-02-24T18:59:42.686Z,94801.69
2023-02-24T19:02:09.711Z,94795.50
2023-02-24T19:04:36.206Z,94801.69
2023-02-24T19:07:02.766Z,94815.94
2023-02-24T19:09:29.235Z,94815.13
2023-02-24T19:11:55.858Z,94817.78
2023-02-24T19:14:22.477Z,94808.09
2023-02-24T19:16:49.808Z,94809.94
2023-02-24T19:19:16.429Z,94812.59
2023-02-24T19:21:45.357Z,94801.13
2023-02-24T19:24:14.282Z,94796.66
2023-02-24T19:26:42.596Z,94802.94
2023-02-24T19:29:09.441Z,94794.97
2023-02-24T19:31:36.299Z,94794.13
2023-02-24T19:34:04.248Z,94793.28
2023-02-24T19:36:31.266Z,94799.56
2023-02-24T19:38:57.737Z,94783.63
2023-02-24T19:41:24.378Z,94789.81
2023-02-24T19:43:50.921Z,94788.94
2023-02-24T19:46:17.617Z,94779.31
2023-02-24T19:48:44.131Z,94777.63
2023-02-24T19:51:12.022Z,94783.94
2023-02-24T19:53:38.488Z,94781.28
2023-02-24T19:56:05.527Z,94778.63
2023-02-24T19:58:32.036Z,94786.59
2023-02-24T20:01:05.426Z,94791.91
2023-02-24T20:03:31.973Z,94794.56
2023-02-24T20:05:58.529Z,94794.56
2023-02-24T20:08:25.033Z,94798.06
2023-02-24T20:10:58.292Z,94792.75
2023-02-24T20:13:25.130Z,94784.75
2023-02-24T20:15:51.576Z,94785.59
2023-02-24T20:18:18.532Z,94781.28
2023-02-24T20:20:46.357Z,94777.78
2023-02-24T20:23:12.908Z,94777.63
2023-02-24T20:25:39.350Z,94782.09
2023-02-24T20:28:06.108Z,94777.63
2023-02-24T20:30:32.526Z,94777.78
2023-02-24T20:32:59.570Z,94783.81
2023-02-24T20:35:26.388Z,94782.94
2023-02-24T20:37:52.870Z,94779.44
2023-02-24T20:40:19.362Z,94778.47
2023-02-24T20:42:45.869Z,94764.34
2023-02-24T20:45:12.367Z,94762.53
2023-02-24T20:47:39.314Z,94765.34
2023-02-24T20:50:06.838Z,94763.50
2023-02-24T20:52:34.293Z,94764.34
2023-02-24T20:55:00.759Z,94761.84
2023-02-24T20:57:27.701Z,94752.88
2023-02-24T21:00:03.490Z,94756.34
2023-02-24T21:02:30.617Z,94764.34
2023-02-24T21:04:57.285Z,94767.00
2023-02-24T21:07:23.896Z,94759.00
2023-02-24T21:09:52.105Z,94763.38
2023-02-24T21:12:19.363Z,94759.00
2023-02-24T21:14:46.425Z,94757.22
2023-02-24T21:17:13.041Z,94760.84
2023-02-24T21:19:39.463Z,94758.19
2023-02-24T21:22:06.368Z,94756.53
2023-02-24T21:24:33.157Z,94757.22
2023-02-24T21:27:00.224Z,94728.13
2023-02-24T21:29:26.778Z,94735.09
2023-02-24T21:31:53.392Z,94736.91
2023-02-24T21:34:20.094Z,94746.59
2023-02-24T21:36:46.807Z,94753.69
2023-02-24T21:39:16.051Z,94753.69
2023-02-24T21:41:42.825Z,94758.06
2023-02-24T21:44:11.986Z,94754.56
2023-02-24T21:46:38.601Z,94762.53
2023-02-24T21:49:05.131Z,94767.84
2023-02-24T21:51:31.616Z,94762.66
2023-02-24T21:53:58.180Z,94753.69
2023-02-24T21:56:28.502Z,94755.53
2023-02-24T21:59:00.049Z,94753.69
2023-02-24T22:01:34.174Z,94747.56
2023-02-24T22:04:01.616Z,94762.66
2023-02-24T22:06:31.322Z,94758.06
2023-02-24T22:08:58.231Z,94766.16
2023-02-24T22:11:24.848Z,94774.00
2023-02-24T22:13:51.326Z,94771.47
2023-02-24T22:16:22.366Z,94770.50
2023-02-24T22:18:49.695Z,94770.50
2023-02-24T22:21:19.706Z,94771.47
2023-02-24T22:23:46.708Z,94766.16
2023-02-24T22:26:13.900Z,94772.47
2023-02-24T22:28:40.960Z,94781.13
2023-02-24T22:31:08.196Z,94780.28
2023-02-24T22:33:35.361Z,94782.81
2023-02-24T22:36:02.480Z,94771.34
2023-02-24T22:38:35.606Z,94779.19
2023-02-24T22:41:05.835Z,94781.66
2023-02-24T22:43:32.470Z,94784.19
2023-02-24T22:46:06.096Z,94791.19
2023-02-24T22:48:33.461Z,94801.25
2023-02-24T22:51:01.063Z,94799.97
2023-02-24T22:53:28.615Z,94798.84
2023-02-24T22:55:55.304Z,94792.44
2023-02-24T22:58:21.948Z,94801.38
2023-02-24T23:00:48.759Z,94811.03
2023-02-24T23:03:19.762Z,94828.97
2023-02-24T23:05:56.097Z,94839.72
2023-02-24T23:08:23.591Z,94846.88
2023-02-24T23:10:50.060Z,94848.66
2023-02-24T23:13:17.957Z,94851.50
2023-02-24T23:15:44.551Z,94860.44
2023-02-24T23:18:13.841Z,94863.22
2023-02-24T23:20:40.704Z,94871.34
2023-02-24T23:23:07.212Z,94890.13
2023-02-24T23:25:33.653Z,94883.09
2023-02-24T23:28:19.272Z,94880.56
2023-02-24T23:30:46.167Z,94899.19
2023-02-24T23:33:13.294Z,94895.69
2023-02-24T23:35:40.697Z,94888.72
2023-02-24T23:38:07.610Z,94894.03
2023-02-24T23:40:48.057Z,94895.00
2023-02-24T23:43:15.930Z,94886.31
2023-02-24T23:45:42.621Z,94888.00
2023-02-24T23:48:09.340Z,94890.66
2023-02-24T23:50:39.455Z,94885.50
2023-02-24T23:53:07.610Z,94896.13
2023-02-24T23:55:35.560Z,94898.91
2023-02-24T23:58:02.762Z,94900.59
